This is the latest recevied weather packets stored in our database for station/object EA5SW-14. If no packets are shown the sender has not sent any weather packets the latest 10 day(s).
| Time | Temp. | Humidity | Pressure | Rain* | Wind** | Luminosity | Snow |
|---|---|---|---|---|---|---|---|
| 1777820593 | 16.67° C | 87% | 1007.3 hPa | 0 mm | - | - | - |
| 1777809193 | 15° C | 92% | 1009.6 hPa | 1.78 mm | - | - | - |
| 1777806152 | 15° C | 92% | 1009.4 hPa | 0.51 mm | - | - | - |
| 1777804944 | 15° C | 93% | 1009.5 hPa | 2.29 mm | - | - | - |
| 1777803795 | 15° C | 92% | 1009.7 hPa | 1.78 mm | - | - | - |
| 1777803191 | 15° C | 92% | 1009.9 hPa | 1.78 mm | - | - | - |
| 1777792374 | 14.44° C | 88% | 1009.8 hPa | 0 mm | - | - | - |
| 1777791166 | 14.44° C | 89% | 1009.6 hPa | 0 mm | - | - | - |
| 1777790561 | 14.44° C | 89% | 1009.9 hPa | 0 mm | - | - | - |
| 1777788144 | 13.89° C | 90% | 1009.9 hPa | 0 mm | - | - | - |
| 1777783370 | 13.33° C | 91% | 1009.8 hPa | 0 mm | - | - | - |
| 1777774970 | 13.33° C | 90% | 1010.5 hPa | 0 mm | - | - | - |
| 1777772553 | 13.33° C | 91% | 1010.5 hPa | 0 mm | - | - | - |
| 1777771949 | 13.33° C | 90% | 1010.6 hPa | 0 mm | - | - | - |
| 1777769592 | 13.89° C | 88% | 1011.2 hPa | 0 mm | - | - | - |
| 1777765987 | 14.44° C | 88% | 1012 hPa | 0 mm | - | - | - |
| 1777765362 | 14.44° C | 88% | 1012.1 hPa | 0 mm | - | - | - |
| 1777764778 | 14.44° C | 88% | 1012.1 hPa | 0 mm | - | - | - |
| 1777763549 | 14.44° C | 88% | 1012.1 hPa | 0 mm | - | - | - |
| 1777761193 | 14.44° C | 88% | 1012.3 hPa | 0 mm | - | - | - |
| 1777758775 | 14.44° C | 89% | 1012.2 hPa | 0 mm | - | - | - |
| 1777756378 | 14.44° C | 88% | 1012 hPa | 0 mm | - | - | - |
| 1777744413 | 17.22° C | 80% | 1011.1 hPa | 0 mm | - | - | - |
| 1777742017 | 18.33° C | 77% | 1011.3 hPa | 0 mm | - | - | - |
| 1777739560 | 18.89° C | 73% | 1011.6 hPa | 0 mm | - | - | - |
* Rain latest hour (hover to see other rain measurements)
** Current wind speed in m/s (hover to see current wind gust speed)